sensor_id;sensor_type;location;lat;lon;timestamp;P1;durP1;ratioP1;P2;durP2;ratioP2
63217;SDS011;49314;48.278;16.378;2023-06-26T00:01:06;10.15;;;9.18;;
63217;SDS011;49314;48.278;16.378;2023-06-26T00:03:31;10.70;;;9.80;;
63217;SDS011;49314;48.278;16.378;2023-06-26T00:05:57;8.48;;;7.88;;
63217;SDS011;49314;48.278;16.378;2023-06-26T00:08:25;10.27;;;9.48;;
63217;SDS011;49314;48.278;16.378;2023-06-26T00:10:50;9.63;;;8.48;;
63217;SDS011;49314;48.278;16.378;2023-06-26T00:13:16;10.13;;;9.32;;
63217;SDS011;49314;48.278;16.378;2023-06-26T00:15:41;9.35;;;8.75;;
63217;SDS011;49314;48.278;16.378;2023-06-26T00:18:07;8.82;;;8.13;;
63217;SDS011;49314;48.278;16.378;2023-06-26T00:20:32;12.27;;;7.97;;
63217;SDS011;49314;48.278;16.378;2023-06-26T00:22:59;10.05;;;9.25;;
63217;SDS011;49314;48.278;16.378;2023-06-26T00:25:24;10.10;;;9.30;;
63217;SDS011;49314;48.278;16.378;2023-06-26T00:27:49;9.90;;;9.20;;
63217;SDS011;49314;48.278;16.378;2023-06-26T00:30:14;9.63;;;9.03;;
63217;SDS011;49314;48.278;16.378;2023-06-26T00:32:39;8.95;;;8.32;;
63217;SDS011;49314;48.278;16.378;2023-06-26T00:35:05;10.80;;;10.10;;
63217;SDS011;49314;48.278;16.378;2023-06-26T00:37:30;9.48;;;8.88;;
63217;SDS011;49314;48.278;16.378;2023-06-26T00:39:55;8.48;;;7.68;;
63217;SDS011;49314;48.278;16.378;2023-06-26T00:42:21;9.00;;;8.33;;
63217;SDS011;49314;48.278;16.378;2023-06-26T00:44:46;9.93;;;9.10;;
63217;SDS011;49314;48.278;16.378;2023-06-26T00:47:12;9.70;;;8.90;;
63217;SDS011;49314;48.278;16.378;2023-06-26T00:49:39;10.40;;;9.65;;
63217;SDS011;49314;48.278;16.378;2023-06-26T00:52:04;10.00;;;9.30;;
63217;SDS011;49314;48.278;16.378;2023-06-26T00:54:30;11.10;;;10.25;;
63217;SDS011;49314;48.278;16.378;2023-06-26T00:56:55;8.27;;;7.72;;
63217;SDS011;49314;48.278;16.378;2023-06-26T00:59:20;9.17;;;8.40;;
63217;SDS011;49314;48.278;16.378;2023-06-26T01:01:46;10.57;;;9.73;;
63217;SDS011;49314;48.278;16.378;2023-06-26T01:04:11;9.73;;;9.13;;
63217;SDS011;49314;48.278;16.378;2023-06-26T01:06:42;11.85;;;10.95;;
63217;SDS011;49314;48.278;16.378;2023-06-26T01:09:08;10.18;;;9.38;;
63217;SDS011;49314;48.278;16.378;2023-06-26T01:11:33;12.40;;;11.52;;
63217;SDS011;49314;48.278;16.378;2023-06-26T01:13:59;13.17;;;12.37;;
63217;SDS011;49314;48.278;16.378;2023-06-26T01:16:25;10.15;;;9.30;;
63217;SDS011;49314;48.278;16.378;2023-06-26T01:18:50;9.90;;;9.23;;
63217;SDS011;49314;48.278;16.378;2023-06-26T01:21:16;10.00;;;9.15;;
63217;SDS011;49314;48.278;16.378;2023-06-26T01:28:43;11.25;;;10.55;;
63217;SDS011;49314;48.278;16.378;2023-06-26T01:31:09;9.65;;;8.85;;
63217;SDS011;49314;48.278;16.378;2023-06-26T01:33:35;9.52;;;8.90;;
63217;SDS011;49314;48.278;16.378;2023-06-26T01:36:01;9.55;;;8.95;;
63217;SDS011;49314;48.278;16.378;2023-06-26T01:38:26;10.57;;;9.88;;
63217;SDS011;49314;48.278;16.378;2023-06-26T01:40:52;10.48;;;9.57;;
63217;SDS011;49314;48.278;16.378;2023-06-26T01:43:24;10.50;;;9.70;;
63217;SDS011;49314;48.278;16.378;2023-06-26T01:45:54;9.23;;;8.63;;
63217;SDS011;49314;48.278;16.378;2023-06-26T01:48:21;9.02;;;8.43;;
63217;SDS011;49314;48.278;16.378;2023-06-26T01:50:48;10.65;;;9.85;;
63217;SDS011;49314;48.278;16.378;2023-06-26T01:53:18;12.13;;;11.13;;
63217;SDS011;49314;48.278;16.378;2023-06-26T01:55:50;11.65;;;10.75;;
63217;SDS011;49314;48.278;16.378;2023-06-26T01:58:17;10.60;;;9.93;;
63217;SDS011;49314;48.278;16.378;2023-06-26T02:00:45;9.48;;;8.63;;
63217;SDS011;49314;48.278;16.378;2023-06-26T02:03:10;11.03;;;10.10;;
63217;SDS011;49314;48.278;16.378;2023-06-26T02:05:36;10.57;;;9.77;;
63217;SDS011;49314;48.278;16.378;2023-06-26T02:08:01;11.85;;;11.05;;
63217;SDS011;49314;48.278;16.378;2023-06-26T02:10:27;11.40;;;10.60;;
63217;SDS011;49314;48.278;16.378;2023-06-26T02:12:53;12.55;;;11.52;;
63217;SDS011;49314;48.278;16.378;2023-06-26T02:15:18;11.93;;;10.90;;
63217;SDS011;49314;48.278;16.378;2023-06-26T02:17:43;10.07;;;9.37;;
63217;SDS011;49314;48.278;16.378;2023-06-26T02:20:13;11.05;;;10.05;;
63217;SDS011;49314;48.278;16.378;2023-06-26T02:22:38;12.18;;;11.48;;
63217;SDS011;49314;48.278;16.378;2023-06-26T02:25:03;12.10;;;11.20;;
63217;SDS011;49314;48.278;16.378;2023-06-26T02:27:29;12.45;;;11.65;;
63217;SDS011;49314;48.278;16.378;2023-06-26T02:29:54;13.52;;;12.63;;
63217;SDS011;49314;48.278;16.378;2023-06-26T02:32:19;12.27;;;11.30;;
63217;SDS011;49314;48.278;16.378;2023-06-26T02:34:44;10.43;;;9.53;;
63217;SDS011;49314;48.278;16.378;2023-06-26T02:37:09;14.47;;;13.47;;
63217;SDS011;49314;48.278;16.378;2023-06-26T02:39:35;11.68;;;10.65;;
63217;SDS011;49314;48.278;16.378;2023-06-26T02:42:00;12.13;;;11.13;;
63217;SDS011;49314;48.278;16.378;2023-06-26T02:44:26;13.82;;;12.77;;
63217;SDS011;49314;48.278;16.378;2023-06-26T02:46:51;14.57;;;13.53;;
63217;SDS011;49314;48.278;16.378;2023-06-26T02:49:16;12.38;;;11.35;;
63217;SDS011;49314;48.278;16.378;2023-06-26T02:51:42;14.32;;;13.32;;
63217;SDS011;49314;48.278;16.378;2023-06-26T02:54:07;13.05;;;12.15;;
63217;SDS011;49314;48.278;16.378;2023-06-26T02:56:32;12.75;;;11.77;;
63217;SDS011;49314;48.278;16.378;2023-06-26T02:58:58;13.48;;;12.35;;
63217;SDS011;49314;48.278;16.378;2023-06-26T03:01:23;14.15;;;13.05;;
63217;SDS011;49314;48.278;16.378;2023-06-26T03:03:48;13.60;;;12.70;;
63217;SDS011;49314;48.278;16.378;2023-06-26T03:06:14;14.88;;;13.63;;
63217;SDS011;49314;48.278;16.378;2023-06-26T03:08:40;14.63;;;13.63;;
63217;SDS011;49314;48.278;16.378;2023-06-26T03:11:05;12.52;;;11.55;;
63217;SDS011;49314;48.278;16.378;2023-06-26T03:13:31;19.55;;;15.60;;
63217;SDS011;49314;48.278;16.378;2023-06-26T03:15:57;14.05;;;12.98;;
63217;SDS011;49314;48.278;16.378;2023-06-26T03:18:22;14.70;;;13.73;;
63217;SDS011;49314;48.278;16.378;2023-06-26T03:20:47;13.95;;;12.95;;
63217;SDS011;49314;48.278;16.378;2023-06-26T03:23:13;15.02;;;14.02;;
63217;SDS011;49314;48.278;16.378;2023-06-26T03:25:38;15.52;;;14.52;;
63217;SDS011;49314;48.278;16.378;2023-06-26T03:28:03;14.43;;;13.50;;
63217;SDS011;49314;48.278;16.378;2023-06-26T03:30:28;16.93;;;15.80;;
63217;SDS011;49314;48.278;16.378;2023-06-26T03:32:54;15.07;;;13.57;;
63217;SDS011;49314;48.278;16.378;2023-06-26T03:35:19;12.77;;;11.97;;
63217;SDS011;49314;48.278;16.378;2023-06-26T03:37:44;14.73;;;13.63;;
63217;SDS011;49314;48.278;16.378;2023-06-26T03:40:10;17.52;;;16.08;;
63217;SDS011;49314;48.278;16.378;2023-06-26T03:42:35;13.57;;;12.65;;
63217;SDS011;49314;48.278;16.378;2023-06-26T03:45:00;13.00;;;11.93;;
63217;SDS011;49314;48.278;16.378;2023-06-26T03:47:25;15.73;;;14.57;;
63217;SDS011;49314;48.278;16.378;2023-06-26T03:49:50;14.77;;;13.77;;
63217;SDS011;49314;48.278;16.378;2023-06-26T03:52:16;15.00;;;13.70;;
63217;SDS011;49314;48.278;16.378;2023-06-26T03:54:41;15.80;;;14.70;;
63217;SDS011;49314;48.278;16.378;2023-06-26T03:57:06;13.93;;;12.83;;
63217;SDS011;49314;48.278;16.378;2023-06-26T03:59:31;12.93;;;11.82;;
63217;SDS011;49314;48.278;16.378;2023-06-26T04:01:57;14.95;;;13.90;;
63217;SDS011;49314;48.278;16.378;2023-06-26T04:04:22;14.97;;;13.73;;
63217;SDS011;49314;48.278;16.378;2023-06-26T04:06:47;13.43;;;12.10;;
63217;SDS011;49314;48.278;16.378;2023-06-26T04:09:12;14.55;;;13.48;;
63217;SDS011;49314;48.278;16.378;2023-06-26T04:11:38;12.88;;;11.88;;
63217;SDS011;49314;48.278;16.378;2023-06-26T04:14:03;13.48;;;12.38;;
63217;SDS011;49314;48.278;16.378;2023-06-26T04:16:29;14.57;;;13.53;;
63217;SDS011;49314;48.278;16.378;2023-06-26T04:18:54;14.20;;;13.20;;
63217;SDS011;49314;48.278;16.378;2023-06-26T04:21:21;13.52;;;12.52;;
63217;SDS011;49314;48.278;16.378;2023-06-26T04:23:48;13.38;;;12.20;;
63217;SDS011;49314;48.278;16.378;2023-06-26T04:26:14;13.27;;;12.07;;
63217;SDS011;49314;48.278;16.378;2023-06-26T04:28:39;12.68;;;11.60;;
63217;SDS011;49314;48.278;16.378;2023-06-26T04:31:04;13.43;;;12.43;;
63217;SDS011;49314;48.278;16.378;2023-06-26T04:33:30;14.43;;;13.37;;
63217;SDS011;49314;48.278;16.378;2023-06-26T04:35:55;15.47;;;14.10;;
63217;SDS011;49314;48.278;16.378;2023-06-26T04:38:20;13.80;;;12.35;;
63217;SDS011;49314;48.278;16.378;2023-06-26T04:40:46;14.70;;;13.43;;
63217;SDS011;49314;48.278;16.378;2023-06-26T04:43:12;13.82;;;12.82;;
63217;SDS011;49314;48.278;16.378;2023-06-26T04:45:37;15.07;;;13.95;;
63217;SDS011;49314;48.278;16.378;2023-06-26T04:48:02;13.03;;;12.00;;
63217;SDS011;49314;48.278;16.378;2023-06-26T04:50:27;13.10;;;12.10;;
63217;SDS011;49314;48.278;16.378;2023-06-26T04:52:54;12.15;;;11.00;;
63217;SDS011;49314;48.278;16.378;2023-06-26T04:55:19;13.73;;;12.73;;
63217;SDS011;49314;48.278;16.378;2023-06-26T04:57:46;12.77;;;11.57;;
63217;SDS011;49314;48.278;16.378;2023-06-26T05:00:11;12.00;;;11.00;;
63217;SDS011;49314;48.278;16.378;2023-06-26T05:02:37;12.23;;;11.20;;
63217;SDS011;49314;48.278;16.378;2023-06-26T05:05:02;13.63;;;10.80;;
63217;SDS011;49314;48.278;16.378;2023-06-26T05:07:27;12.35;;;11.45;;
63217;SDS011;49314;48.278;16.378;2023-06-26T05:09:53;10.98;;;10.07;;
63217;SDS011;49314;48.278;16.378;2023-06-26T05:12:18;12.73;;;11.57;;
63217;SDS011;49314;48.278;16.378;2023-06-26T05:14:43;11.60;;;10.70;;
63217;SDS011;49314;48.278;16.378;2023-06-26T05:17:09;10.98;;;9.88;;
63217;SDS011;49314;48.278;16.378;2023-06-26T05:19:34;10.87;;;9.87;;
63217;SDS011;49314;48.278;16.378;2023-06-26T05:22:00;11.90;;;10.00;;
63217;SDS011;49314;48.278;16.378;2023-06-26T05:24:27;10.48;;;9.48;;
63217;SDS011;49314;48.278;16.378;2023-06-26T05:26:52;10.98;;;9.98;;
63217;SDS011;49314;48.278;16.378;2023-06-26T05:29:18;10.18;;;9.18;;
63217;SDS011;49314;48.278;16.378;2023-06-26T05:31:43;11.20;;;9.23;;
63217;SDS011;49314;48.278;16.378;2023-06-26T05:34:10;9.95;;;8.88;;
63217;SDS011;49314;48.278;16.378;2023-06-26T05:36:35;10.15;;;9.35;;
63217;SDS011;49314;48.278;16.378;2023-06-26T05:39:01;9.60;;;8.73;;
63217;SDS011;49314;48.278;16.378;2023-06-26T05:41:26;8.60;;;7.90;;
63217;SDS011;49314;48.278;16.378;2023-06-26T05:43:51;9.60;;;8.68;;
63217;SDS011;49314;48.278;16.378;2023-06-26T05:46:19;8.48;;;7.68;;
63217;SDS011;49314;48.278;16.378;2023-06-26T05:48:44;8.33;;;7.63;;
63217;SDS011;49314;48.278;16.378;2023-06-26T05:51:10;8.30;;;7.68;;
63217;SDS011;49314;48.278;16.378;2023-06-26T05:53:35;9.10;;;8.40;;
63217;SDS011;49314;48.278;16.378;2023-06-26T05:56:00;8.98;;;8.27;;
63217;SDS011;49314;48.278;16.378;2023-06-26T05:58:26;8.75;;;7.78;;
63217;SDS011;49314;48.278;16.378;2023-06-26T06:00:52;9.57;;;8.68;;
63217;SDS011;49314;48.278;16.378;2023-06-26T06:03:18;9.02;;;8.23;;
63217;SDS011;49314;48.278;16.378;2023-06-26T06:05:43;8.35;;;7.65;;
63217;SDS011;49314;48.278;16.378;2023-06-26T06:08:08;11.80;;;8.50;;
63217;SDS011;49314;48.278;16.378;2023-06-26T06:10:34;8.75;;;7.95;;
63217;SDS011;49314;48.278;16.378;2023-06-26T06:12:59;8.52;;;7.72;;
63217;SDS011;49314;48.278;16.378;2023-06-26T06:15:24;8.83;;;7.97;;
63217;SDS011;49314;48.278;16.378;2023-06-26T06:17:50;9.17;;;8.27;;
63217;SDS011;49314;48.278;16.378;2023-06-26T06:20:15;8.93;;;8.13;;
63217;SDS011;49314;48.278;16.378;2023-06-26T06:22:40;8.57;;;7.67;;
63217;SDS011;49314;48.278;16.378;2023-06-26T06:25:05;8.70;;;8.00;;
63217;SDS011;49314;48.278;16.378;2023-06-26T06:27:31;10.52;;;8.15;;
63217;SDS011;49314;48.278;16.378;2023-06-26T06:29:56;8.43;;;7.60;;
63217;SDS011;49314;48.278;16.378;2023-06-26T06:32:21;8.73;;;7.80;;
63217;SDS011;49314;48.278;16.378;2023-06-26T06:34:48;9.10;;;8.30;;
63217;SDS011;49314;48.278;16.378;2023-06-26T06:37:13;8.90;;;8.20;;
63217;SDS011;49314;48.278;16.378;2023-06-26T06:39:38;8.37;;;7.70;;
63217;SDS011;49314;48.278;16.378;2023-06-26T06:42:04;8.47;;;7.60;;
63217;SDS011;49314;48.278;16.378;2023-06-26T06:44:29;8.13;;;7.35;;
63217;SDS011;49314;48.278;16.378;2023-06-26T06:46:55;8.63;;;7.60;;
63217;SDS011;49314;48.278;16.378;2023-06-26T06:49:20;8.73;;;8.00;;
63217;SDS011;49314;48.278;16.378;2023-06-26T06:51:46;8.43;;;7.60;;
63217;SDS011;49314;48.278;16.378;2023-06-26T06:54:11;8.60;;;7.80;;
63217;SDS011;49314;48.278;16.378;2023-06-26T06:56:36;7.60;;;6.93;;
63217;SDS011;49314;48.278;16.378;2023-06-26T06:59:01;7.47;;;6.83;;
63217;SDS011;49314;48.278;16.378;2023-06-26T07:01:27;6.93;;;6.43;;
63217;SDS011;49314;48.278;16.378;2023-06-26T07:03:52;6.37;;;5.87;;
63217;SDS011;49314;48.278;16.378;2023-06-26T07:06:17;6.00;;;5.50;;
63217;SDS011;49314;48.278;16.378;2023-06-26T07:08:42;6.00;;;5.50;;
63217;SDS011;49314;48.278;16.378;2023-06-26T07:11:08;6.57;;;5.50;;
63217;SDS011;49314;48.278;16.378;2023-06-26T07:13:33;6.53;;;5.77;;
63217;SDS011;49314;48.278;16.378;2023-06-26T07:15:58;6.90;;;6.37;;
63217;SDS011;49314;48.278;16.378;2023-06-26T07:18:23;6.75;;;6.15;;
63217;SDS011;49314;48.278;16.378;2023-06-26T07:20:49;6.50;;;6.03;;
63217;SDS011;49314;48.278;16.378;2023-06-26T07:23:14;6.73;;;6.13;;
63217;SDS011;49314;48.278;16.378;2023-06-26T07:25:39;5.40;;;4.90;;
63217;SDS011;49314;48.278;16.378;2023-06-26T07:28:09;5.13;;;4.73;;
63217;SDS011;49314;48.278;16.378;2023-06-26T07:30:34;5.47;;;4.97;;
63217;SDS011;49314;48.278;16.378;2023-06-26T07:32:59;5.43;;;4.87;;
63217;SDS011;49314;48.278;16.378;2023-06-26T07:35:25;5.40;;;4.60;;
63217;SDS011;49314;48.278;16.378;2023-06-26T07:37:52;6.55;;;4.82;;
63217;SDS011;49314;48.278;16.378;2023-06-26T07:40:17;5.20;;;4.80;;
63217;SDS011;49314;48.278;16.378;2023-06-26T07:42:42;4.53;;;4.13;;
63217;SDS011;49314;48.278;16.378;2023-06-26T07:45:08;5.70;;;4.83;;
63217;SDS011;49314;48.278;16.378;2023-06-26T07:47:37;4.97;;;4.57;;
63217;SDS011;49314;48.278;16.378;2023-06-26T07:50:02;5.15;;;4.75;;
63217;SDS011;49314;48.278;16.378;2023-06-26T07:52:28;4.35;;;3.95;;
63217;SDS011;49314;48.278;16.378;2023-06-26T07:54:53;4.68;;;4.32;;
63217;SDS011;49314;48.278;16.378;2023-06-26T07:57:18;6.03;;;5.23;;
63217;SDS011;49314;48.278;16.378;2023-06-26T07:59:43;5.37;;;4.90;;
63217;SDS011;49314;48.278;16.378;2023-06-26T08:02:09;5.27;;;4.77;;
63217;SDS011;49314;48.278;16.378;2023-06-26T08:04:34;5.10;;;4.60;;
63217;SDS011;49314;48.278;16.378;2023-06-26T08:07:00;4.95;;;4.55;;
63217;SDS011;49314;48.278;16.378;2023-06-26T08:09:26;4.55;;;4.15;;
63217;SDS011;49314;48.278;16.378;2023-06-26T08:11:51;4.95;;;4.53;;
63217;SDS011;49314;48.278;16.378;2023-06-26T08:14:17;4.40;;;4.00;;
63217;SDS011;49314;48.278;16.378;2023-06-26T08:16:42;5.07;;;4.78;;
63217;SDS011;49314;48.278;16.378;2023-06-26T08:19:09;5.35;;;4.85;;
63217;SDS011;49314;48.278;16.378;2023-06-26T08:21:34;5.00;;;4.60;;
63217;SDS011;49314;48.278;16.378;2023-06-26T08:23:59;4.80;;;4.40;;
63217;SDS011;49314;48.278;16.378;2023-06-26T08:26:25;4.43;;;4.03;;
63217;SDS011;49314;48.278;16.378;2023-06-26T08:28:50;4.53;;;4.23;;
63217;SDS011;49314;48.278;16.378;2023-06-26T08:31:15;4.67;;;4.27;;
63217;SDS011;49314;48.278;16.378;2023-06-26T08:33:41;4.15;;;3.83;;
63217;SDS011;49314;48.278;16.378;2023-06-26T08:36:06;4.50;;;4.10;;
63217;SDS011;49314;48.278;16.378;2023-06-26T08:38:31;4.60;;;4.17;;
63217;SDS011;49314;48.278;16.378;2023-06-26T08:40:57;4.72;;;4.32;;
63217;SDS011;49314;48.278;16.378;2023-06-26T08:43:23;4.43;;;4.07;;
63217;SDS011;49314;48.278;16.378;2023-06-26T08:45:48;4.87;;;4.37;;
63217;SDS011;49314;48.278;16.378;2023-06-26T08:48:16;4.75;;;4.40;;
63217;SDS011;49314;48.278;16.378;2023-06-26T08:50:42;4.95;;;4.55;;
63217;SDS011;49314;48.278;16.378;2023-06-26T08:55:33;5.90;;;5.03;;
63217;SDS011;49314;48.278;16.378;2023-06-26T08:58:01;4.82;;;4.43;;
63217;SDS011;49314;48.278;16.378;2023-06-26T09:00:26;4.80;;;4.43;;
63217;SDS011;49314;48.278;16.378;2023-06-26T09:02:52;4.97;;;4.57;;
63217;SDS011;49314;48.278;16.378;2023-06-26T09:05:17;5.00;;;4.63;;
63217;SDS011;49314;48.278;16.378;2023-06-26T09:07:44;5.50;;;4.38;;
63217;SDS011;49314;48.278;16.378;2023-06-26T09:10:09;4.50;;;4.20;;
63217;SDS011;49314;48.278;16.378;2023-06-26T09:12:35;4.70;;;4.35;;
63217;SDS011;49314;48.278;16.378;2023-06-26T09:15:01;4.30;;;4.00;;
63217;SDS011;49314;48.278;16.378;2023-06-26T09:17:29;4.47;;;4.18;;
63217;SDS011;49314;48.278;16.378;2023-06-26T09:19:54;4.55;;;4.25;;
63217;SDS011;49314;48.278;16.378;2023-06-26T09:22:20;4.63;;;4.23;;
63217;SDS011;49314;48.278;16.378;2023-06-26T09:24:45;4.57;;;4.23;;
63217;SDS011;49314;48.278;16.378;2023-06-26T09:27:10;4.88;;;4.50;;
63217;SDS011;49314;48.278;16.378;2023-06-26T09:29:36;5.55;;;4.20;;
63217;SDS011;49314;48.278;16.378;2023-06-26T09:32:01;5.37;;;4.97;;
63217;SDS011;49314;48.278;16.378;2023-06-26T09:34:32;6.17;;;4.40;;
63217;SDS011;49314;48.278;16.378;2023-06-26T09:36:58;4.55;;;4.25;;
63217;SDS011;49314;48.278;16.378;2023-06-26T09:39:23;4.97;;;4.57;;
63217;SDS011;49314;48.278;16.378;2023-06-26T09:41:49;4.43;;;4.10;;
63217;SDS011;49314;48.278;16.378;2023-06-26T09:44:14;4.93;;;4.43;;
63217;SDS011;49314;48.278;16.378;2023-06-26T09:46:40;4.80;;;4.50;;
63217;SDS011;49314;48.278;16.378;2023-06-26T09:49:09;4.70;;;4.23;;
63217;SDS011;49314;48.278;16.378;2023-06-26T09:51:36;4.28;;;4.07;;
63217;SDS011;49314;48.278;16.378;2023-06-26T09:54:02;5.03;;;4.20;;
63217;SDS011;49314;48.278;16.378;2023-06-26T09:56:27;4.00;;;3.70;;
63217;SDS011;49314;48.278;16.378;2023-06-26T09:58:55;4.95;;;4.55;;
63217;SDS011;49314;48.278;16.378;2023-06-26T10:01:20;4.82;;;4.25;;
63217;SDS011;49314;48.278;16.378;2023-06-26T10:03:45;4.83;;;4.43;;
63217;SDS011;49314;48.278;16.378;2023-06-26T10:06:11;4.63;;;4.23;;
63217;SDS011;49314;48.278;16.378;2023-06-26T10:08:37;4.80;;;4.25;;
63217;SDS011;49314;48.278;16.378;2023-06-26T10:11:02;4.72;;;4.32;;
63217;SDS011;49314;48.278;16.378;2023-06-26T10:13:29;4.70;;;4.30;;
63217;SDS011;49314;48.278;16.378;2023-06-26T10:15:56;6.65;;;4.40;;
63217;SDS011;49314;48.278;16.378;2023-06-26T10:18:22;4.32;;;4.03;;
63217;SDS011;49314;48.278;16.378;2023-06-26T10:20:49;4.70;;;4.40;;
63217;SDS011;49314;48.278;16.378;2023-06-26T10:23:15;4.93;;;4.53;;
63217;SDS011;49314;48.278;16.378;2023-06-26T10:25:42;4.13;;;3.83;;
63217;SDS011;49314;48.278;16.378;2023-06-26T10:28:09;4.82;;;4.47;;
63217;SDS011;49314;48.278;16.378;2023-06-26T10:30:35;4.97;;;4.47;;
63217;SDS011;49314;48.278;16.378;2023-06-26T10:33:01;4.50;;;4.20;;
63217;SDS011;49314;48.278;16.378;2023-06-26T10:35:28;4.28;;;3.88;;
63217;SDS011;49314;48.278;16.378;2023-06-26T10:37:54;4.53;;;4.17;;
63217;SDS011;49314;48.278;16.378;2023-06-26T10:40:25;4.20;;;3.80;;
63217;SDS011;49314;48.278;16.378;2023-06-26T10:42:50;4.13;;;3.72;;
63217;SDS011;49314;48.278;16.378;2023-06-26T10:45:16;3.90;;;3.60;;
63217;SDS011;49314;48.278;16.378;2023-06-26T10:47:43;3.47;;;3.17;;
63217;SDS011;49314;48.278;16.378;2023-06-26T10:55:31;3.88;;;3.58;;
63217;SDS011;49314;48.278;16.378;2023-06-26T10:57:56;3.90;;;3.60;;
63217;SDS011;49314;48.278;16.378;2023-06-26T11:00:22;4.33;;;4.03;;
63217;SDS011;49314;48.278;16.378;2023-06-26T11:02:48;3.40;;;3.10;;
63217;SDS011;49314;48.278;16.378;2023-06-26T11:05:22;4.15;;;3.85;;
63217;SDS011;49314;48.278;16.378;2023-06-26T11:08:07;3.85;;;3.58;;
63217;SDS011;49314;48.278;16.378;2023-06-26T11:10:51;3.47;;;3.28;;
63217;SDS011;49314;48.278;16.378;2023-06-26T11:13:17;3.70;;;3.40;;
63217;SDS011;49314;48.278;16.378;2023-06-26T11:15:43;4.00;;;3.70;;
63217;SDS011;49314;48.278;16.378;2023-06-26T11:18:09;3.80;;;3.60;;
63217;SDS011;49314;48.278;16.378;2023-06-26T11:20:35;4.25;;;3.95;;
63217;SDS011;49314;48.278;16.378;2023-06-26T11:23:01;4.30;;;4.00;;
63217;SDS011;49314;48.278;16.378;2023-06-26T11:25:27;4.13;;;3.83;;
63217;SDS011;49314;48.278;16.378;2023-06-26T11:27:53;3.80;;;3.60;;
63217;SDS011;49314;48.278;16.378;2023-06-26T11:30:25;4.43;;;4.13;;
63217;SDS011;49314;48.278;16.378;2023-06-26T11:32:50;4.40;;;4.10;;
63217;SDS011;49314;48.278;16.378;2023-06-26T11:35:22;4.80;;;3.77;;
63217;SDS011;49314;48.278;16.378;2023-06-26T11:37:55;4.70;;;4.40;;
63217;SDS011;49314;48.278;16.378;2023-06-26T11:40:20;9.13;;;3.92;;
63217;SDS011;49314;48.278;16.378;2023-06-26T11:42:46;4.72;;;4.25;;
63217;SDS011;49314;48.278;16.378;2023-06-26T11:45:11;4.28;;;3.83;;
63217;SDS011;49314;48.278;16.378;2023-06-26T11:47:37;4.43;;;4.10;;
63217;SDS011;49314;48.278;16.378;2023-06-26T11:50:04;3.72;;;3.28;;
63217;SDS011;49314;48.278;16.378;2023-06-26T11:52:29;5.57;;;4.25;;
63217;SDS011;49314;48.278;16.378;2023-06-26T11:54:54;4.20;;;4.00;;
63217;SDS011;49314;48.278;16.378;2023-06-26T11:57:19;4.00;;;3.70;;
63217;SDS011;49314;48.278;16.378;2023-06-26T11:59:45;4.70;;;4.00;;
63217;SDS011;49314;48.278;16.378;2023-06-26T12:02:11;4.13;;;3.83;;
63217;SDS011;49314;48.278;16.378;2023-06-26T12:04:38;4.78;;;3.70;;
63217;SDS011;49314;48.278;16.378;2023-06-26T12:07:05;4.30;;;3.47;;
63217;SDS011;49314;48.278;16.378;2023-06-26T12:09:33;4.18;;;3.88;;
63217;SDS011;49314;48.278;16.378;2023-06-26T12:11:58;4.40;;;4.10;;
63217;SDS011;49314;48.278;16.378;2023-06-26T12:14:24;3.97;;;3.67;;
63217;SDS011;49314;48.278;16.378;2023-06-26T12:16:51;3.67;;;3.38;;
63217;SDS011;49314;48.278;16.378;2023-06-26T12:19:17;4.03;;;3.47;;
63217;SDS011;49314;48.278;16.378;2023-06-26T12:21:46;6.87;;;4.43;;
63217;SDS011;49314;48.278;16.378;2023-06-26T12:24:15;3.60;;;3.30;;
63217;SDS011;49314;48.278;16.378;2023-06-26T12:26:45;3.85;;;3.65;;
63217;SDS011;49314;48.278;16.378;2023-06-26T12:29:14;3.83;;;3.63;;
63217;SDS011;49314;48.278;16.378;2023-06-26T12:31:49;4.25;;;3.95;;
63217;SDS011;49314;48.278;16.378;2023-06-26T12:34:15;4.18;;;3.78;;
63217;SDS011;49314;48.278;16.378;2023-06-26T12:36:47;4.70;;;4.10;;
63217;SDS011;49314;48.278;16.378;2023-06-26T12:39:14;4.40;;;4.00;;
63217;SDS011;49314;48.278;16.378;2023-06-26T12:42:00;4.18;;;3.88;;
63217;SDS011;49314;48.278;16.378;2023-06-26T12:44:29;4.30;;;3.80;;
63217;SDS011;49314;48.278;16.378;2023-06-26T12:46:57;4.63;;;3.65;;
63217;SDS011;49314;48.278;16.378;2023-06-26T12:49:35;3.78;;;3.58;;
63217;SDS011;49314;48.278;16.378;2023-06-26T12:52:01;4.05;;;3.75;;
63217;SDS011;49314;48.278;16.378;2023-06-26T12:54:27;4.13;;;3.83;;
63217;SDS011;49314;48.278;16.378;2023-06-26T12:56:53;4.82;;;4.15;;
63217;SDS011;49314;48.278;16.378;2023-06-26T12:59:18;4.30;;;3.80;;
63217;SDS011;49314;48.278;16.378;2023-06-26T13:01:43;4.47;;;4.07;;
63217;SDS011;49314;48.278;16.378;2023-06-26T13:04:08;4.27;;;3.87;;
63217;SDS011;49314;48.278;16.378;2023-06-26T13:06:34;4.10;;;3.80;;
63217;SDS011;49314;48.278;16.378;2023-06-26T13:08:59;4.03;;;3.83;;
63217;SDS011;49314;48.278;16.378;2023-06-26T13:11:24;4.60;;;4.30;;
63217;SDS011;49314;48.278;16.378;2023-06-26T13:13:49;4.27;;;3.97;;
63217;SDS011;49314;48.278;16.378;2023-06-26T13:16:15;4.88;;;4.45;;
63217;SDS011;49314;48.278;16.378;2023-06-26T13:18:41;6.88;;;4.03;;
63217;SDS011;49314;48.278;16.378;2023-06-26T13:21:06;4.53;;;4.13;;
63217;SDS011;49314;48.278;16.378;2023-06-26T13:23:32;4.27;;;3.97;;
63217;SDS011;49314;48.278;16.378;2023-06-26T13:25:57;4.90;;;4.50;;
63217;SDS011;49314;48.278;16.378;2023-06-26T13:28:22;4.27;;;3.87;;
63217;SDS011;49314;48.278;16.378;2023-06-26T13:30:47;4.40;;;3.97;;
63217;SDS011;49314;48.278;16.378;2023-06-26T13:33:12;4.67;;;4.27;;
63217;SDS011;49314;48.278;16.378;2023-06-26T13:35:38;4.50;;;4.20;;
63217;SDS011;49314;48.278;16.378;2023-06-26T13:38:03;4.33;;;3.93;;
63217;SDS011;49314;48.278;16.378;2023-06-26T13:40:28;4.97;;;4.60;;
63217;SDS011;49314;48.278;16.378;2023-06-26T13:42:53;4.43;;;4.10;;
63217;SDS011;49314;48.278;16.378;2023-06-26T13:45:19;4.33;;;4.03;;
63217;SDS011;49314;48.278;16.378;2023-06-26T13:47:44;5.03;;;4.43;;
63217;SDS011;49314;48.278;16.378;2023-06-26T13:50:09;4.43;;;4.13;;
63217;SDS011;49314;48.278;16.378;2023-06-26T13:52:35;4.57;;;4.18;;
63217;SDS011;49314;48.278;16.378;2023-06-26T13:55:00;4.10;;;3.80;;
63217;SDS011;49314;48.278;16.378;2023-06-26T13:57:25;4.43;;;4.00;;
63217;SDS011;49314;48.278;16.378;2023-06-26T13:59:52;4.70;;;4.30;;
63217;SDS011;49314;48.278;16.378;2023-06-26T14:02:17;4.63;;;4.33;;
63217;SDS011;49314;48.278;16.378;2023-06-26T14:04:43;5.47;;;4.80;;
63217;SDS011;49314;48.278;16.378;2023-06-26T14:07:08;5.00;;;4.50;;
63217;SDS011;49314;48.278;16.378;2023-06-26T14:09:34;5.25;;;4.85;;
63217;SDS011;49314;48.278;16.378;2023-06-26T14:11:59;4.80;;;4.50;;
63217;SDS011;49314;48.278;16.378;2023-06-26T14:14:24;4.80;;;4.50;;
63217;SDS011;49314;48.278;16.378;2023-06-26T14:16:50;5.13;;;4.73;;
63217;SDS011;49314;48.278;16.378;2023-06-26T14:19:15;5.00;;;4.60;;
63217;SDS011;49314;48.278;16.378;2023-06-26T14:21:42;4.93;;;4.47;;
63217;SDS011;49314;48.278;16.378;2023-06-26T14:24:07;4.60;;;4.30;;
63217;SDS011;49314;48.278;16.378;2023-06-26T14:26:32;7.97;;;4.70;;
63217;SDS011;49314;48.278;16.378;2023-06-26T14:28:59;7.38;;;5.55;;
63217;SDS011;49314;48.278;16.378;2023-06-26T14:31:24;5.68;;;4.97;;